Tiempo atmosférico en la estación meteorológica de Aller, Asturias (750 m.)



Fecha
DESCASC
Temp. máxima en grados centígrados (hora)
DESCASC
Temp. mínima en grados centígrados (hora)
DESCASC
Temp. media en grados centígrados
DESCASC
Racha de viento máxima en m/sg (hora)
DESCASC
Velocidad máxima media en intervalos de 10 minutos(hora)
DESCASC
Precipitaciones diarias en mm
DESCASC
Precipitaciones de 00:00 a 06:00 en mm
DESCASC
Precipitaciones de 06:00 a 12:00 en mm
DESCASC
Precipitaciones de 12:00 a 18:00 en mm
DESCASC
Precipitaciones de 18:00 a 24:00 en mm
DESCASC

Gráficas

Temp. máximas Temp. mínimas Temp. medias Precipitaciones Rachas de viento máximas Velocidades máximas media en intervalos de 10 minutos

Datos horarios

Fecha y hora oficial Temperatura (ºC) Velocidad del viento (km/h) Dirección del viento Racha (km/h) Dirección de racha Precipitación (mm) Presión (hPa) Tendencia (hPa) Humedad (%)
2020-01-26 23:00:00 7.2 5 Sudeste 17 Sur 0 -- -- 69
2020-01-26 22:00:00 8 3 Sur 17 Sur 0 -- -- 67
2020-01-26 21:00:00 6.4 3 Sudeste 14 Sur 0 -- -- 69
2020-01-26 20:00:00 7.4 3 Noroeste 23 Sur 0 -- -- 65
2020-01-26 19:00:00 7.8 7 Este 22 Sudeste 0 -- -- 60
2020-01-26 18:00:00 8.4 3 Sudeste 16 Sudeste 0 -- -- 63
2020-01-26 17:00:00 8.9 6 Sudeste 15 Este 0 -- -- 56
2020-01-26 16:00:00 10 5 Sudeste 14 Sur 0 -- -- 52
2020-01-26 15:00:00 10 6 Sur 22 Sudeste 0 -- -- 54
2020-01-26 14:00:00 10.8 8 Sudeste 21 Sur 0 -- -- 53
2020-01-26 13:00:00 11 6 Sur 15 Sudeste 0 -- -- 49
2020-01-26 12:00:00 8.5 6 Sur 13 Sur 0 -- -- 59
2020-01-26 11:00:00 4.3 2 Sudeste 9 Sudeste 0 -- -- 80
2020-01-26 10:00:00 2.5 4 Sudeste 12 Sudeste 0 -- -- 83
2020-01-26 09:00:00 0.7 5 Sudeste 11 Sudeste 0 -- -- 93
2020-01-26 08:00:00 1.2 5 Sudeste 9 Sudeste 0 -- -- 91
2020-01-26 07:00:00 1.1 0 Calma 9 Sudeste 0 -- -- 94
2020-01-26 06:00:00 1.1 5 Sudeste 9 Sudeste 0 -- -- 97
2020-01-26 05:00:00 2 0 Calma 8 Sudeste 0 -- -- 95
2020-01-26 04:00:00 3.5 5 Sudeste 8 Sudeste 0 -- -- 97
2020-01-26 03:00:00 3.9 0 Calma 6 Sudeste 0 -- -- 97
2020-01-26 02:00:00 4.3 3 Noroeste 9 Sudeste 0 -- -- 96
2020-01-26 01:00:00 4.1 4 Sudeste 8 Sudeste 0 -- -- 98
2020-01-26 00:00:00 4 2 Noroeste 5 Sur 0 -- -- 97
2020-01-25 23:00:00 4.5 0 Calma 9 Noroeste 0 -- -- 94
2020-01-25 22:00:00 5.3 8 Norte 13 Norte 0 -- -- 93
2020-01-25 21:00:00 5.8 5 Norte 9 Norte 0 -- -- 87
2020-01-25 20:00:00 5.8 3 Sudeste 8 Sudeste 0 -- -- 86
2020-01-25 19:00:00 6.9 0 Calma 6 Norte 0 -- -- 79
2020-01-25 18:00:00 8 4 Norte 10 Noroeste 0 -- -- 72
2020-01-25 17:00:00 8.6 3 Noroeste 10 Noroeste 0 -- -- 66
2020-01-25 16:00:00 7.7 5 Sudeste 8 Sudeste 0 -- -- 66
2020-01-25 15:00:00 8.6 3 Sudeste 9 Sudeste 0 -- -- 61
2020-01-25 14:00:00 9 3 Sur 8 Sudeste 0 -- -- 57
2020-01-25 13:00:00 8 6 Sudeste 9 Sudeste 0 -- -- 65
2020-01-25 12:00:00 6.9 6 Sudeste 10 Sudeste 0 -- -- 72
2020-01-25 11:00:00 4.3 5 Sudeste 10 Sudeste 0 -- -- 82
2020-01-25 10:00:00 3.3 5 Sudeste 9 Sudeste 0 -- -- 86
2020-01-25 09:00:00 3.8 3 Este 6 Noroeste 0 -- -- 89
2020-01-25 08:00:00 5.2 3 Sudeste 14 Sudeste 0 -- -- 83
2020-01-25 07:00:00 5.8 6 Sudeste 16 Sur 0 -- -- 83
2020-01-25 06:00:00 4.4 2 Sudeste 8 Sur 0 -- -- 89
2020-01-25 05:00:00 4.4 0 Calma 13 Sudeste 0 -- -- 88
2020-01-25 04:00:00 4.2 4 Sudeste 9 Sudeste 0 -- -- 89
2020-01-25 03:00:00 2.8 6 Sudeste 9 Sudeste 0 -- -- 96
2020-01-25 02:00:00 1.8 0 Calma 7 Sudeste 0 -- -- 96
2020-01-25 01:00:00 2.1 5 Sudeste 9 Sudeste 0 -- -- 94
2020-01-25 00:00:00 2.3 3 Sudeste 9 Sudeste 0 -- -- 94
2020-01-24 23:00:00 3.5 0 Calma 8 Sudeste 0 -- -- 90
2020-01-24 22:00:00 5.4 5 Sudeste 11 Sudeste 0 -- -- 85
2020-01-24 21:00:00 7 7 Sudeste 15 Sur 0 -- -- 80
2020-01-24 20:00:00 7.6 2 Sudeste 14 Sudeste 0 -- -- 75
2020-01-24 19:00:00 8.6 6 Sudeste 15 Sur 0 -- -- 67
2020-01-24 18:00:00 9.4 2 Sudeste 9 Sudeste 0 -- -- 65
2020-01-24 17:00:00 10 4 Sur 17 Sudeste 0 -- -- 62
2020-01-24 16:00:00 10.3 4 Sur 15 Sudeste 0 -- -- 59
2020-01-24 15:00:00 10.5 7 Sudeste 27 Sudeste 0 -- -- 59
2020-01-24 14:00:00 13 6 Sudeste 19 Sudeste 0 -- -- 52
2020-01-24 13:00:00 11 7 Sudeste 18 Sur 0 -- -- 60
2020-01-24 12:00:00 10.5 5 Noroeste 8 Noroeste 0 -- -- 64
2020-01-24 11:00:00 7.6 2 Noroeste 6 Sudeste 0 -- -- 75
2020-01-24 10:00:00 4.6 0 Calma 7 Noroeste 0 -- -- 91
2020-01-24 09:00:00 4 0 Calma 8 Sudeste 0 -- -- 89
2020-01-24 08:00:00 4.5 0 Calma 7 Noroeste 0 -- -- 85
2020-01-24 07:00:00 6.8 3 Noroeste 26 Sudeste 0 -- -- 77
2020-01-24 06:00:00 7.9 7 Este 18 Sur 0 -- -- 68
2020-01-24 05:00:00 5.7 5 Este 13 Sudeste 0 -- -- 77
2020-01-24 04:00:00 5.3 3 Sudeste 17 Sur 0 -- -- 81
2020-01-24 03:00:00 6.5 4 Sudeste 16 Este 0 -- -- 73
2020-01-24 02:00:00 5.9 3 Sudeste 12 Este 0 -- -- 78
2020-01-24 01:00:00 6.9 2 Sur 23 Este 0 -- -- 72
2020-01-24 00:00:00 4.3 2 Sur 12 Sudeste 0 -- -- 82
2020-01-23 23:00:00 3.5 3 Noroeste 10 Sudeste 0 -- -- 86
2020-01-23 22:00:00 3.3 2 Sudeste 12 Sudeste 0 -- -- 87
2020-01-23 21:00:00 3.5 4 Sudeste 10 Sudeste 0 -- -- 86
2020-01-23 20:00:00 4.1 0 Calma 11 Sudeste 0 -- -- 84
2020-01-23 19:00:00 5 6 Sudeste 8 Sudeste 0 -- -- 81
2020-01-23 18:00:00 7.2 3 Este 10 Sudeste 0 -- -- 73
2020-01-23 17:00:00 8.9 4 Sudeste 5 Sudeste 0 -- -- 69
2020-01-23 16:00:00 10.3 3 Sur 9 Sur 0 -- -- 54
2020-01-23 15:00:00 10.2 5 Sur 15 Sudeste 0 -- -- 52
2020-01-23 14:00:00 11.1 5 Sudeste 22 Sudeste 0 -- -- 52
2020-01-23 13:00:00 10.1 7 Sudeste 16 Sudeste 0 -- -- 55
2020-01-23 12:00:00 6 0 Calma 5 Este 0 -- -- 86
2020-01-23 11:00:00 2 3 Nordeste 9 Sudeste 0 -- -- 96
2020-01-23 10:00:00 0.2 4 Sudeste 10 Sur 0 -- -- 99
2020-01-23 09:00:00 -0.3 4 Sudeste 9 Sudeste 0 -- -- 100
2020-01-23 08:00:00 -0.2 4 Sudeste 9 Sudeste 0 -- -- 100
2020-01-23 07:00:00 0 0 Calma 6 Sudeste 0 -- -- 99
2020-01-23 06:00:00 0.3 4 Sudeste 9 Sudeste 0 -- -- 100
2020-01-23 05:00:00 0.1 3 Sudeste 6 Sudeste 0 -- -- 100
2020-01-23 04:00:00 0.3 0 Calma 5 Sudeste 0 -- -- 99
2020-01-23 03:00:00 1.3 2 Sur 9 Sudeste 0 -- -- 98
2020-01-23 02:00:00 1.3 0 Calma 8 Este 0 -- -- 97
2020-01-23 01:00:00 3 3 Sudeste 7 Sudeste 0 -- -- 96
2020-01-23 00:00:00 3.3 3 Este 7 Sudeste 0 -- -- 97
2020-01-22 23:00:00 3.6 4 Sudeste 8 Sudeste 0 -- -- 98
2020-01-22 22:00:00 4.2 0 Calma 3 Noroeste 0 -- -- 100
2020-01-22 21:00:00 4.4 0 Calma 2 Noroeste 0.2 -- -- 100
2020-01-22 20:00:00 4.5 0 Calma 3 Noroeste 0 -- -- 100
2020-01-22 19:00:00 4.6 3 Noroeste 8 Norte 0.2 -- -- 99
2020-01-22 18:00:00 4.8 4 Norte 8 Norte 0.2 -- -- 98
2020-01-22 17:00:00 5 2 Norte 8 Norte 0 -- -- 98
2020-01-22 16:00:00 5.2 6 Norte 9 Norte 0 -- -- 97
2020-01-22 15:00:00 5.4 5 Norte 10 Noroeste 0 -- -- 95
2020-01-22 14:00:00 5.6 4 Norte 10 Norte 0 -- -- 94
2020-01-22 13:00:00 5.6 3 Norte 11 Norte 0 -- -- 95
2020-01-22 12:00:00 5.4 4 Norte 10 Norte 0 -- -- 96
2020-01-22 11:00:00 5.2 0 Calma 5 Este 0.2 -- -- 98
2020-01-22 10:00:00 4.2 4 Sudeste 6 Sudeste 0.4 -- -- 99
2020-01-22 09:00:00 4 3 Sudeste 10 Sur 0.4 -- -- 99
2020-01-22 08:00:00 3.7 3 Este 9 Sudoeste 0.2 -- -- 99
2020-01-22 07:00:00 3.5 4 Sudeste 11 Sur 0.2 -- -- 99
2020-01-22 06:00:00 2.5 4 Noroeste 14 Sur 0 -- -- 98
2020-01-22 05:00:00 2 2 Sudeste 12 Sur 0 -- -- 98
2020-01-22 04:00:00 1.8 0 Calma 6 Noroeste 0 -- -- 98
2020-01-22 03:00:00 1.8 0 Calma 6 Noroeste 0 -- -- 98
2020-01-22 02:00:00 1.7 0 Calma 8 Noroeste 0 -- -- 97
2020-01-22 01:00:00 1.7 6 Norte 9 Norte 0 -- -- 96
2020-01-22 00:00:00 1.8 2 Norte 5 Noroeste 0 -- -- 96
2020-01-21 23:00:00 1.7 2 Sudeste 4 Sudeste 0 -- -- 95
2020-01-21 22:00:00 2.1 2 Noroeste 5 Noroeste 0 -- -- 94
2020-01-21 21:00:00 2.2 0 Calma 4 Noroeste 0 -- -- 92
2020-01-21 20:00:00 2.5 2 Noroeste 6 Este 0 -- -- 92
2020-01-21 19:00:00 2.6 0 Calma 3 Sudeste 0 -- -- 91
2020-01-21 18:00:00 2.7 0 Calma 3 Noroeste 0 -- -- 88
2020-01-21 17:00:00 2.8 0 Calma 4 Noroeste 0 -- -- 89
2020-01-21 16:00:00 2.9 0 Calma 4 Noroeste 0 -- -- 84
2020-01-21 15:00:00 2.7 2 Sudeste 5 Sudeste 0 -- -- 84
2020-01-21 14:00:00 2.4 0 Calma 3 Noroeste 0 -- -- 84
2020-01-21 13:00:00 2 0 Calma 4 Noroeste 0 -- -- 88
2020-01-21 12:00:00 1.6 0 Calma 5 Oeste 0 -- -- 89
2020-01-21 11:00:00 1.3 0 Calma 4 Sur 0 -- -- 92
2020-01-21 10:00:00 0.9 5 Sur 8 Sudeste 0 -- -- 94
2020-01-21 09:00:00 0.5 0 Calma 6 Sur 0 -- -- 96
2020-01-21 08:00:00 0.3 0 Calma 4 Noroeste 0 -- -- 96
2020-01-21 07:00:00 0.3 0 Calma 6 Norte 0 -- -- 97
2020-01-21 06:00:00 0.5 4 Noroeste 5 Noroeste 0 -- -- 96
2020-01-21 05:00:00 0.5 0 Calma 5 Noroeste 0 -- -- 94
2020-01-21 04:00:00 0.5 3 Noroeste 5 Noroeste 0 -- -- 95
2020-01-21 03:00:00 0.5 0 Calma 4 Noroeste 0 -- -- 93
2020-01-21 02:00:00 0.6 0 Calma 6 Noroeste 0 -- -- 92
2020-01-21 01:00:00 1 3 Norte 6 Norte 0 -- -- 88
2020-01-21 00:00:00 1.1 0 Calma 5 Norte 0 -- -- 84
2020-01-20 23:00:00 1.1 2 Norte 5 Noroeste 0 -- -- 85
2020-01-20 22:00:00 1.2 0 Calma 6 Nordeste 0 -- -- 83
2020-01-20 21:00:00 1.3 0 Calma 7 Norte 0 -- -- 82
2020-01-20 20:00:00 1.3 3 Norte 10 Noroeste 0 -- -- 80
2020-01-20 19:00:00 1.6 3 Noroeste 11 Norte 0 -- -- 74
2020-01-20 18:00:00 2.1 2 Oeste 10 Noroeste 0 -- -- 69
2020-01-20 17:00:00 2.3 2 Noroeste 16 Noroeste 0 -- -- 67
2020-01-20 16:00:00 2.9 5 Noroeste 16 Sur 0 -- -- 62
2020-01-20 15:00:00 3.1 5 Noroeste 30 Sur 0 -- -- 64
2020-01-20 14:00:00 3.9 6 Sur 33 Sudeste 0 -- -- 54
2020-01-20 13:00:00 3.4 13 Oeste 45 Oeste 0 -- -- 52
2020-01-20 12:00:00 2.9 10 Oeste 39 Oeste 0 -- -- 58
2020-01-20 11:00:00 2.9 9 Sudoeste 28 Sudeste 0 -- -- 58
2020-01-20 10:00:00 1.8 12 Sur 40 Sur 0 -- -- 66
2020-01-20 09:00:00 1.6 5 Sudoeste 47 Sur 0.2 -- -- 67
2020-01-20 08:00:00 1.2 6 Noroeste 28 Sur 0.2 -- -- 84
2020-01-20 07:00:00 0.8 6 Sur 32 Sudoeste 0 -- -- 83
2020-01-20 06:00:00 0.4 4 Nordeste 22 Sur 0.2 -- -- 93
2020-01-20 05:00:00 1.3 7 Sur 20 Sudoeste 0.6 -- -- 77
2020-01-20 04:00:00 0.7 4 Nordeste 14 Noroeste 0.2 -- -- 90
2020-01-20 03:00:00 2 3 Este 38 Sudeste 0 -- -- 78
2020-01-20 02:00:00 2.7 16 Sur 43 Sur 0 -- -- 61
2020-01-20 01:00:00 2.9 9 Sudoeste 41 Sudoeste 0 -- -- 63
2020-01-20 00:00:00 3 10 Sur 30 Sur 0 -- -- 64
2020-01-19 23:00:00 3.2 4 Oeste 35 Sur 0 -- -- 62
2020-01-19 22:00:00 3 10 Sur 32 Sudeste 0.2 -- -- 65
2020-01-19 21:00:00 3.4 9 Sudoeste 40 Oeste 0 -- -- 59
2020-01-19 20:00:00 3.1 9 Noroeste 28 Noroeste 0 -- -- 68
2020-01-19 19:00:00 3 8 Noroeste 22 Noroeste 0 -- -- 69
2020-01-19 18:00:00 3.3 9 Sudoeste 26 Sur 0 -- -- 63
2020-01-19 17:00:00 4 11 Sudoeste 34 Sudoeste 0 -- -- 63
2020-01-19 16:00:00 3.3 4 Sudeste 22 Noroeste 0.2 -- -- 82
2020-01-19 15:00:00 3.8 5 Noroeste 23 Noroeste 0 -- -- 76
2020-01-19 14:00:00 4.1 4 Sudeste 21 Noroeste 0.6 -- -- 83
2020-01-19 13:00:00 3 5 Norte 13 Noroeste 0.8 -- -- 92
2020-01-19 12:00:00 3 4 Noroeste 10 Sudeste 1.2 -- -- 93
2020-01-19 11:00:00 2.9 3 Noroeste 20 Noroeste 0.6 -- -- 92
2020-01-19 10:00:00 3.3 5 Norte 23 Noroeste 0.8 -- -- 91
2020-01-19 09:00:00 3.6 9 Noroeste 31 Noroeste 2.2 -- -- 91
2020-01-19 08:00:00 3.5 14 Noroeste 31 Sudoeste 1.4 -- -- 92
2020-01-19 07:00:00 4 17 Noroeste 30 Oeste 1.2 -- -- 88
2020-01-19 06:00:00 4.5 16 Noroeste 43 Oeste 1.6 -- -- 87
2020-01-19 05:00:00 5.3 14 Noroeste 40 Oeste 2.6 -- -- 91
2020-01-19 04:00:00 4.7 12 Norte 20 Noroeste 3 -- -- 99
2020-01-19 03:00:00 4.8 10 Norte 18 Norte 1.6 -- -- 99
2020-01-19 02:00:00 4.6 5 Noroeste 9 Norte 0.6 -- -- 99
2020-01-19 01:00:00 4.5 3 Norte 6 Noroeste 0.8 -- -- 99
2020-01-19 00:00:00 4.6 0 Calma 4 Sudoeste 0 -- -- 99
2020-01-18 23:00:00 4.5 0 Calma 4 Sudeste 0 -- -- 98
2020-01-18 22:00:00 4.6 0 Calma 3 Sur 0 -- -- 98
2020-01-18 21:00:00 4.8 0 Calma 6 Noroeste 0.2 -- -- 97
2020-01-18 20:00:00 4.9 4 Norte 10 Norte 0.8 -- -- 95
2020-01-18 19:00:00 5.2 0 Calma 12 Nordeste 0.4 -- -- 95
2020-01-18 18:00:00 5.8 3 Noroeste 13 Norte 0.2 -- -- 95
2020-01-18 17:00:00 6.1 5 Sudeste 17 Norte 3 -- -- 92
2020-01-18 16:00:00 7.1 6 Norte 34 Noroeste 3.2 -- -- 91
2020-01-18 15:00:00 9.1 6 Sudeste 20 Sudeste 0 -- -- 71
2020-01-18 14:00:00 8.9 4 Sudeste 30 Sudeste 0 -- -- 69
2020-01-18 13:00:00 9.4 16 Sudeste 42 Sudeste 0 -- -- 66
2020-01-18 12:00:00 9.9 12 Sudeste 32 Nordeste 0 -- -- 63
2020-01-18 11:00:00 9.4 9 Sudeste 22 Este 0 -- -- 63
2020-01-18 10:00:00 8.3 13 Sudeste 45 Sudeste 0 -- -- 64
2020-01-18 09:00:00 8.2 9 Este 40 Sudeste 0 -- -- 61
2020-01-18 08:00:00 9 10 Sudeste 31 Sur 0 -- -- 54
2020-01-18 07:00:00 8.5 13 Sudeste 42 Sudeste 0 -- -- 54
2020-01-18 06:00:00 8.8 10 Sudeste 35 Este 0 -- -- 52
2020-01-18 05:00:00 8.1 4 Nordeste 32 Sur 0 -- -- 49
2020-01-18 04:00:00 6.3 3 Norte 19 Sudeste 0 -- -- 64
2020-01-18 03:00:00 7.8 10 Sudeste 26 Sudeste 0 -- -- 48
2020-01-18 02:00:00 4.6 5 Noroeste 12 Noroeste 0 -- -- 72
2020-01-18 01:00:00 4.1 5 Sudeste 9 Sudeste 0 -- -- 73
2020-01-18 00:00:00 3.4 0 Calma 7 Sudeste 0 -- -- 78
2020-01-17 23:00:00 3.3 5 Sudeste 8 Sudeste 0 -- -- 79
2020-01-17 22:00:00 2.8 5 Sudeste 8 Este 0 -- -- 80
2020-01-17 21:00:00 2.8 5 Sudeste 10 Sudeste 0 -- -- 78
2020-01-17 20:00:00 3.4 3 Sudeste 9 Sudeste 0 -- -- 78
2020-01-17 19:00:00 4 4 Sudeste 10 Sudeste 0 -- -- 75
2020-01-17 18:00:00 5.5 4 Sudeste 5 Sudeste 0 -- -- 77
2020-01-17 17:00:00 7.2 0 Calma 9 Norte 0 -- -- 58
2020-01-17 16:00:00 5.9 5 Sudeste 8 Sudeste 0 -- -- 71
2020-01-17 15:00:00 6 2 Sur 5 Sur 0 -- -- 67
2020-01-17 14:00:00 7.6 3 Sur 12 Norte 0 -- -- 63
2020-01-17 13:00:00 8.5 6 Noroeste 14 Norte 0 -- -- 63
2020-01-17 12:00:00 6.9 4 Noroeste 9 Norte 0 -- -- 73
2020-01-17 11:00:00 5.4 0 Calma 6 Noroeste 0 -- -- 87
2020-01-17 10:00:00 4.9 3 Norte 6 Noroeste 0 -- -- 89
2020-01-17 09:00:00 4.6 3 Sudeste 6 Sudeste 0 -- -- 90
2020-01-17 08:00:00 5 4 Sudeste 8 Sudeste 0 -- -- 88
2020-01-17 07:00:00 6.2 0 Calma 14 Nordeste 0 -- -- 83
2020-01-17 06:00:00 6.8 8 Norte 15 Norte 0 -- -- 77
2020-01-17 05:00:00 7.7 4 Norte 23 Norte 0 -- -- 71
2020-01-17 04:00:00 6.2 2 Sudeste 10 Este 0 -- -- 79
2020-01-17 03:00:00 7 7 Sudeste 16 Norte 0 -- -- 71
2020-01-17 02:00:00 7 3 Noroeste 12 Este 0 -- -- 74
2020-01-17 01:00:00 7.6 3 Sudeste 15 Este 0 -- -- 76
2020-01-17 00:00:00 8.7 3 Este 22 Este 0 -- -- 71
2020-01-16 23:00:00 9.1 5 Sudeste 31 Nordeste 0 -- -- 68
2020-01-16 22:00:00 9.7 10 Este 28 Este 0.2 -- -- 66
2020-01-16 21:00:00 8.4 6 Sudeste 22 Este 0.4 -- -- 84
2020-01-16 20:00:00 9.7 9 Este 30 Sudeste 0.2 -- -- 69
2020-01-16 19:00:00 10 8 Este 46 Sur 0.2 -- -- 70
2020-01-16 18:00:00 10.9 15 Este 37 Este 0.2 -- -- 65
2020-01-16 17:00:00 11.5 11 Este 46 Sudeste 0 -- -- 63
2020-01-16 16:00:00 12.1 10 Este 35 Sudeste 0 -- -- 59
2020-01-16 15:00:00 12.2 4 Norte 40 Noroeste 0 -- -- 60
2020-01-16 14:00:00 12 10 Nordeste 49 Norte 0 -- -- 62
2020-01-16 13:00:00 11.9 8 Este 47 Este 0 -- -- 65
2020-01-16 12:00:00 12.2 11 Nordeste 34 Este 0 -- -- 69
2020-01-16 11:00:00 11.9 6 Este 29 Norte 0.2 -- -- 69
2020-01-16 10:00:00 12.3 19 Este 47 Nordeste 0 -- -- 63
2020-01-16 09:00:00 11.4 5 Nordeste 26 Nordeste 0 -- -- 76
2020-01-16 08:00:00 12.1 6 Nordeste 32 Nordeste 0 -- -- 69
2020-01-16 07:00:00 12.2 5 Norte 21 Sudeste 0 -- -- 65
2020-01-16 06:00:00 11.8 6 Este 25 Sudeste 0 -- -- 66
2020-01-16 05:00:00 12 5 Este 19 Sudeste 0 -- -- 60
2020-01-16 04:00:00 11.4 5 Este 17 Sudeste 0 -- -- 63
2020-01-16 03:00:00 12.4 4 Este 21 Este 0 -- -- 67
2020-01-16 02:00:00 11.9 7 Sudeste 19 Este 0 -- -- 67
2020-01-16 01:00:00 12.5 13 Este 50 Nordeste 0 -- -- 65
2020-01-16 00:00:00 12.3 19 Este 50 Sudeste 0 -- -- 65
2020-01-15 23:00:00 11.6 10 Este 35 Este 0 -- -- 61
2020-01-15 22:00:00 10.1 4 Este 44 Sudeste 0 -- -- 57
2020-01-15 21:00:00 10.6 12 Este 28 Sudeste 0 -- -- 57
2020-01-15 20:00:00 10.2 6 Este 29 Sur 0 -- -- 60
2020-01-15 19:00:00 8 3 Nordeste 13 Sudeste 0 -- -- 71
2020-01-15 18:00:00 10.7 9 Este 27 Sur 0 -- -- 56
2020-01-15 17:00:00 10.5 5 Este 32 Sudeste 0 -- -- 59
2020-01-15 16:00:00 10.6 5 Este 21 Sur 0 -- -- 58
2020-01-15 15:00:00 11 3 Sudeste 17 Sudeste 0 -- -- 61
2020-01-15 14:00:00 13.5 4 Sudoeste 22 Sudeste 0 -- -- 48
2020-01-15 13:00:00 13.3 8 Sur 17 Sur 0 -- -- 57
2020-01-15 12:00:00 10.2 4 Noroeste 7 Oeste 0 -- -- 79
2020-01-15 11:00:00 8.7 3 Nordeste 12 Sudeste 0.4 -- -- 88
2020-01-15 10:00:00 8.5 5 Sudeste 11 Sudeste 0 -- -- 85
2020-01-15 09:00:00 9.8 4 Sudeste 25 Sudeste 0 -- -- 74
2020-01-15 08:00:00 10.6 6 Este 32 Sudeste 0 -- -- 65
2020-01-15 07:00:00 11 9 Este 34 Este 0 -- -- 61
2020-01-15 06:00:00 10.6 6 Este 25 Este 0 -- -- 64
2020-01-15 05:00:00 10.7 13 Nordeste 50 Norte 0 -- -- 63
2020-01-15 04:00:00 10.3 6 Nordeste 35 Nordeste 0 -- -- 66
2020-01-15 03:00:00 10 7 Nordeste 39 Este 0 -- -- 66
2020-01-15 02:00:00 10.3 11 Este 37 Este 0 -- -- 63
2020-01-15 01:00:00 9.9 7 Sur 31 Sur 0 -- -- 62
2020-01-15 00:00:00 9.3 5 Este 31 Norte 0 -- -- 64
2020-01-14 23:00:00 9.7 10 Este 32 Sudeste 0 -- -- 62
2020-01-14 22:00:00 9.7 7 Este 28 Nordeste 0 -- -- 62
2020-01-14 21:00:00 9.4 5 Este 40 Sudeste 0 -- -- 63
2020-01-14 20:00:00 9.6 6 Sudeste 44 Sur 0 -- -- 61
2020-01-14 19:00:00 9.5 13 Sudeste 43 Sudeste 0 -- -- 60
2020-01-14 18:00:00 9.3 12 Sudeste 43 Sur 0 -- -- 61
2020-01-14 17:00:00 9 10 Este 33 Sudeste 0 -- -- 60
2020-01-14 16:00:00 8.6 14 Este 48 Nordeste 0 -- -- 62
2020-01-14 15:00:00 9.2 14 Sudeste 39 Sudeste 0 -- -- 57
2020-01-14 14:00:00 8.4 16 Sudeste 41 Este 0 -- -- 60
2020-01-14 13:00:00 7.6 14 Sudeste 44 Sudeste 0 -- -- 64
2020-01-14 12:00:00 7.7 20 Sudeste 51 Sudeste 0 -- -- 65
2020-01-14 11:00:00 9.1 18 Sudeste 53 Sudeste 0 -- -- 60
2020-01-14 10:00:00 8.9 15 Sudeste 41 Sur 0 -- -- 61
2020-01-14 09:00:00 8.9 17 Sudeste 43 Sudeste 0 -- -- 61
2020-01-14 08:00:00 8.6 17 Sudeste 43 Sudeste 0 -- -- 63
2020-01-14 07:00:00 10 14 Sudeste 50 Nordeste 0 -- -- 60
2020-01-14 06:00:00 11.5 8 Este 39 Sudeste 0 -- -- 54
2020-01-14 05:00:00 11.2 17 Sudeste 40 Sudeste 0 -- -- 54
2020-01-14 04:00:00 11.8 7 Este 39 Sudeste 0 -- -- 50
2020-01-14 03:00:00 10.4 8 Sudeste 28 Sur 0 -- -- 54
2020-01-14 02:00:00 10.9 12 Sur 35 Sudeste 0 -- -- 47
2020-01-14 01:00:00 11.2 11 Sudeste 33 Sudeste 0 -- -- 45
2020-01-14 00:00:00 11.1 13 Sudeste 33 Este 0 -- -- 45
2020-01-13 23:00:00 12.1 11 Norte 40 Este 0 -- -- 40
2020-01-13 22:00:00 10.1 6 Norte 28 Sur 0 -- -- 55
2020-01-13 21:00:00 10.7 8 Este 32 Sudeste 0 -- -- 48
2020-01-13 20:00:00 11.5 10 Nordeste 27 Este 0 -- -- 46
2020-01-13 19:00:00 12.2 12 Norte 36 Sudeste 0 -- -- 36
2020-01-13 18:00:00 12.6 9 Nordeste 32 Noroeste 0 -- -- 35
2020-01-13 17:00:00 11.7 3 Este 27 Sudeste 0 -- -- 37
2020-01-13 16:00:00 13.2 5 Sudeste 25 Noroeste 0 -- -- 27
2020-01-13 15:00:00 13.2 10 Noroeste 25 Noroeste 0 -- -- 30
2020-01-13 14:00:00 15 9 Nordeste 28 Este 0 -- -- 28
2020-01-13 13:00:00 14 9 Sur 26 Sudeste 0.6 -- -- 29
2020-01-13 12:00:00 10.2 5 Sudeste 17 Sudeste 0 -- -- 43
2020-01-13 11:00:00 5.3 5 Sudeste 14 Sudeste 0 -- -- 66
2020-01-13 10:00:00 4.6 7 Sudeste 12 Sudeste 0 -- -- 63
2020-01-13 09:00:00 3.8 0 Calma 13 Sudeste 0 -- -- 73
2020-01-13 08:00:00 3.1 4 Sudeste 11 Sudeste 0 -- -- 69
2020-01-13 07:00:00 4 5 Este 13 Este 0 -- -- 62
2020-01-13 06:00:00 1.4 4 Sudeste 8 Sudeste 0 -- -- 78
2020-01-13 05:00:00 1.6 4 Sudeste 8 Sudeste 0 -- -- 76
2020-01-13 04:00:00 2.4 0 Calma 11 Sudeste 0 -- -- 71
2020-01-13 03:00:00 2.5 6 Sudeste 12 Sudeste 0 -- -- 64
2020-01-13 02:00:00 3 8 Sudeste 14 Sudeste 0 -- -- 60
2020-01-13 01:00:00 0.8 8 Sudeste 10 Sudeste 0 -- -- 77
2020-01-13 00:00:00 1 4 Sudeste 12 Sudeste 0 -- -- 83
2020-01-12 23:00:00 1.4 8 Sudeste 14 Sur 0 -- -- 78
2020-01-12 22:00:00 1.8 0 Calma 13 Sudeste 0 -- -- 80
2020-01-12 21:00:00 2.7 8 Sudeste 13 Sudeste 0 -- -- 73
2020-01-12 20:00:00 3 9 Sudeste 13 Sudeste 0 -- -- 71
2020-01-12 19:00:00 3.4 7 Sudeste 13 Sudeste 0 -- -- 70
2020-01-12 18:00:00 5 6 Sudeste 14 Sudeste 0 -- -- 66
2020-01-12 17:00:00 5.2 8 Sudeste 15 Sudeste 0 -- -- 64
2020-01-12 16:00:00 5.4 10 Sudeste 15 Sudeste 0 -- -- 64
2020-01-12 15:00:00 6.5 10 Sudeste 16 Sudeste 0 -- -- 60
2020-01-12 14:00:00 8.2 9 Sudeste 13 Sudeste 0 -- -- 50
2020-01-12 13:00:00 9.2 8 Sudeste 15 Sudeste 0 -- -- 49
2020-01-12 12:00:00 7.8 8 Sudeste 13 Sudeste 0 -- -- 52
2020-01-12 11:00:00 3.4 9 Sudeste 12 Sudeste 0 -- -- 62
2020-01-12 10:00:00 1.5 6 Sudeste 12 Sudeste 0 -- -- 70
2020-01-12 09:00:00 0.7 9 Sudeste 14 Sudeste 0 -- -- 67
2020-01-12 08:00:00 0.2 6 Sudeste 14 Sudeste 0 -- -- 72
2020-01-12 07:00:00 0.7 10 Sudeste 15 Sudeste 0 -- -- 63
2020-01-12 06:00:00 -0.8 5 Sudeste 13 Sudeste 0 -- -- 79
2020-01-12 05:00:00 0.7 8 Sudeste 14 Sudeste 0 -- -- 69
2020-01-12 04:00:00 0.9 6 Sudeste 19 Sudeste 0 -- -- 76
2020-01-12 03:00:00 0.5 7 Sudeste 11 Sudeste 0 -- -- 75
2020-01-12 02:00:00 0.3 2 Sudeste 12 Sudeste 0 -- -- 79
2020-01-12 01:00:00 0.6 7 Sudeste 12 Sudeste 0 -- -- 74
2020-01-12 00:00:00 0.3 6 Sudeste 11 Sudeste 0 -- -- 80
2020-01-11 23:00:00 1.3 8 Sudeste 13 Sudeste 0 -- -- 74
2020-01-11 22:00:00 1 7 Sudeste 12 Sudeste 0 -- -- 79
2020-01-11 21:00:00 1.4 7 Sudeste 12 Sudeste 0 -- -- 79
2020-01-11 20:00:00 1.9 6 Sudeste 12 Sudeste 0 -- -- 79
2020-01-11 19:00:00 2.9 7 Sudeste 14 Sudeste 0 -- -- 75
2020-01-11 18:00:00 3.7 8 Sudeste 13 Sudeste 0 -- -- 74
2020-01-11 17:00:00 4.8 8 Sudeste 13 Sudeste 0 -- -- 71
2020-01-11 16:00:00 7.7 5 Sudeste 8 Sudeste 0.2 -- -- 67
2020-01-11 15:00:00 7.9 0 Calma 14 Sudeste 0 -- -- 63
2020-01-11 14:00:00 7.6 8 Sudeste 14 Sudeste 0 -- -- 54
2020-01-11 13:00:00 7.1 6 Sudeste 14 Sudeste 0 -- -- 60
2020-01-11 12:00:00 5.1 9 Sudeste 15 Sudeste 0 -- -- 63
2020-01-11 11:00:00 1.3 8 Sudeste 13 Sudeste 0 -- -- 79
2020-01-11 10:00:00 -0.5 6 Sudeste 11 Sudeste 0 -- -- 86
2020-01-11 09:00:00 -1.1 5 Sudeste 10 Sudeste 0 -- -- 89
2020-01-11 08:00:00 -0.9 5 Sudeste 12 Sudeste 0 -- -- 89
2020-01-11 07:00:00 -1.2 4 Sudeste 10 Sudeste 0 -- -- 94
2020-01-11 06:00:00 -1.2 5 Sudeste 9 Sudeste 0 -- -- 96
2020-01-11 05:00:00 -1 3 Sudeste 8 Sudeste 0 -- -- 96
2020-01-11 04:00:00 -0.5 6 Sudeste 10 Sudeste 0 -- -- 97
2020-01-11 03:00:00 -0.6 6 Sudeste 9 Sudeste 0 -- -- 99
2020-01-11 02:00:00 -0.4 5 Sudeste 9 Sudeste 0 -- -- 99
2020-01-11 01:00:00 -0.1 4 Sudeste 8 Sudeste 0 -- -- 99
2020-01-11 00:00:00 0.5 4 Sudeste 10 Sudeste 0 -- -- 98
2020-01-10 23:00:00 0.7 5 Sudeste 9 Sudeste 0 -- -- 98
2020-01-10 22:00:00 1.3 3 Sudeste 8 Sudeste 0 -- -- 98
2020-01-10 21:00:00 2.3 4 Sudeste 9 Sudeste 0 -- -- 96
2020-01-10 20:00:00 4 0 Calma 3 Nordeste 0 -- -- 96
2020-01-10 19:00:00 4.6 3 Nordeste 11 Norte 0 -- -- 96
2020-01-10 18:00:00 5.1 4 Norte 10 Norte 0 -- -- 96
2020-01-10 17:00:00 5.4 5 Norte 12 Noroeste 0.4 -- -- 95
2020-01-10 16:00:00 5.7 6 Noroeste 13 Noroeste 0 -- -- 94
2020-01-10 15:00:00 5.7 9 Norte 16 Norte 0 -- -- 93
2020-01-10 14:00:00 5.4 10 Noroeste 15 Noroeste 0 -- -- 93
2020-01-10 13:00:00 5.2 6 Noroeste 14 Noroeste 0.2 -- -- 94
2020-01-10 12:00:00 4.8 8 Noroeste 12 Noroeste 0 -- -- 95
2020-01-10 11:00:00 4 5 Noroeste 12 Noroeste 0.4 -- -- 98
2020-01-10 10:00:00 3.4 4 Noroeste 10 Norte 0.4 -- -- 98
2020-01-10 09:00:00 3.5 5 Norte 13 Norte 0.2 -- -- 95
2020-01-10 08:00:00 3.7 8 Norte 13 Norte 0.2 -- -- 92
2020-01-10 07:00:00 3.8 6 Norte 21 Noroeste 0.4 -- -- 91
2020-01-10 06:00:00 3.9 6 Norte 13 Norte 0 -- -- 90
2020-01-10 05:00:00 3.3 2 Noroeste 4 Noroeste 0 -- -- 96
2020-01-10 04:00:00 3.4 0 Calma 3 Noroeste 0 -- -- 97
2020-01-10 03:00:00 3.7 2 Norte 19 Norte 0.2 -- -- 93
2020-01-10 02:00:00 3.7 3 Noroeste 6 Noroeste 0 -- -- 96
2020-01-10 01:00:00 3.7 2 Norte 5 Norte 0 -- -- 98
2020-01-10 00:00:00 3.5 2 Este 6 Sudeste 0 -- -- 96
2020-01-09 23:00:00 3.6 3 Sur 8 Sudeste 0 -- -- 98
2020-01-09 22:00:00 3.2 4 Sudeste 7 Sudeste 0 -- -- 98
2020-01-09 21:00:00 3.3 0 Calma 6 Sur 0 -- -- 95
2020-01-09 20:00:00 4.6 5 Sudeste 10 Sudeste 0 -- -- 93
2020-01-09 19:00:00 6.4 3 Sudeste 17 Norte 0 -- -- 91
2020-01-09 18:00:00 7.9 8 Norte 19 Norte 0.8 -- -- 92
2020-01-09 17:00:00 8.8 0 Calma 33 Noroeste 0.4 -- -- 91
2020-01-09 16:00:00 13.9 10 Noroeste 35 Noroeste 0 -- -- 61
2020-01-09 15:00:00 14.5 10 Este 31 Sudeste 0 -- -- 53
2020-01-09 14:00:00 15.2 12 Sudeste 40 Sudeste 0 -- -- 49
2020-01-09 13:00:00 15.6 8 Nordeste 21 Este 0 -- -- 50
2020-01-09 12:00:00 15.9 3 Sudeste 26 Sudeste 0 -- -- 53
2020-01-09 11:00:00 10.7 3 Este 17 Sur 0 -- -- 67
2020-01-09 10:00:00 10.5 9 Sudeste 21 Sudeste 0 -- -- 62
2020-01-09 09:00:00 6.9 5 Sudeste 12 Sudeste 0 -- -- 76
2020-01-09 08:00:00 7.8 3 Este 13 Este 0 -- -- 71
2020-01-09 07:00:00 4.1 4 Sudeste 8 Sur 0 -- -- 90
2020-01-09 06:00:00 5.8 0 Calma 13 Sudeste 0 -- -- 80
2020-01-09 05:00:00 5 0 Calma 14 Sudeste 0 -- -- 84
2020-01-09 04:00:00 4.7 0 Calma 13 Sudeste 0 -- -- 83
2020-01-09 03:00:00 4.6 11 Sudeste 13 Sudeste 0 -- -- 78
2020-01-09 02:00:00 3.9 8 Sudeste 13 Sudeste 0 -- -- 81
2020-01-09 01:00:00 4.7 9 Sudeste 13 Sudeste 0 -- -- 77
2020-01-09 00:00:00 4.1 8 Sudeste 13 Sudeste 0 -- -- 79
2020-01-08 23:00:00 4.6 9 Sudeste 14 Sudeste 0 -- -- 76
2020-01-08 22:00:00 5 6 Sudeste 15 Sudeste 0 -- -- 74
2020-01-08 21:00:00 5.5 8 Sudeste 14 Sudeste 0 -- -- 73
2020-01-08 20:00:00 4.9 9 Sudeste 13 Sudeste 0 -- -- 74
2020-01-08 19:00:00 6.3 8 Sudeste 14 Sudeste 0 -- -- 67
2020-01-08 18:00:00 7.3 9 Sudeste 14 Sudeste 0 -- -- 63
2020-01-08 17:00:00 7.6 9 Sudeste 14 Sudeste 0 -- -- 62
2020-01-08 16:00:00 7.9 9 Sudeste 14 Sudeste 0 -- -- 61
2020-01-08 15:00:00 8.9 9 Sudeste 14 Sudeste 0 -- -- 55
2020-01-08 14:00:00 10.7 9 Sudeste 13 Sudeste 0 -- -- 50
2020-01-08 13:00:00 12 7 Sudeste 12 Sudeste 0 -- -- 48
2020-01-08 12:00:00 10.8 4 Sudeste 10 Sudeste 0 -- -- 59
2020-01-08 11:00:00 5.9 9 Sudeste 17 Sudeste 0 -- -- 67
2020-01-08 10:00:00 4.4 8 Sudeste 12 Sudeste 0 -- -- 70
2020-01-08 09:00:00 4 6 Sudeste 12 Sudeste 0 -- -- 72
2020-01-08 08:00:00 4.4 8 Sudeste 12 Sudeste 0 -- -- 75
2020-01-08 07:00:00 4.6 7 Sudeste 13 Sudeste 0 -- -- 71
2020-01-08 06:00:00 3.4 8 Sudeste 12 Sudeste 0 -- -- 73
2020-01-08 05:00:00 3.4 6 Sudeste 12 Sudeste 0 -- -- 72
2020-01-08 04:00:00 3.8 9 Sudeste 13 Sudeste 0 -- -- 71
2020-01-08 03:00:00 3 7 Sudeste 12 Sudeste 0 -- -- 76
2020-01-08 02:00:00 3.5 3 Sudeste 15 Sudeste 0 -- -- 73
2020-01-08 01:00:00 3.6 2 Sudeste 17 Sudeste 0 -- -- 73
2020-01-08 00:00:00 4.1 9 Sudeste 14 Sudeste 0 -- -- 65
2020-01-07 23:00:00 4 8 Sudeste 14 Sudeste 0 -- -- 66
2020-01-07 22:00:00 4 8 Sudeste 13 Sudeste 0 -- -- 66
2020-01-07 21:00:00 3.9 6 Sudeste 15 Sudeste 0 -- -- 68
2020-01-07 20:00:00 4.4 6 Sudeste 14 Sudeste 0 -- -- 66
2020-01-07 19:00:00 5.3 9 Sudeste 14 Sudeste 0 -- -- 62
2020-01-07 18:00:00 6.4 11 Sudeste 14 Sudeste 0 -- -- 58
2020-01-07 17:00:00 7.2 10 Sudeste 15 Sudeste 0 -- -- 57
2020-01-07 16:00:00 8 10 Sudeste 13 Sudeste 0 -- -- 52
2020-01-07 15:00:00 9 9 Sudeste 14 Sudeste 0 -- -- 47
2020-01-07 14:00:00 10.7 10 Sudeste 17 Sudeste 0 -- -- 42
2020-01-07 13:00:00 11.7 9 Sudeste 13 Sudeste 0 -- -- 41
2020-01-07 12:00:00 9.6 6 Sudeste 13 Sudeste 0 -- -- 52
2020-01-07 11:00:00 5 8 Sudeste 12 Sur 0 -- -- 65
2020-01-07 10:00:00 1.8 3 Sudeste 9 Sudeste 0 -- -- 81
2020-01-07 09:00:00 1.5 6 Sudeste 13 Sudeste 0 -- -- 74
2020-01-07 08:00:00 1.6 2 Sudeste 14 Sudeste 0 -- -- 75
2020-01-07 07:00:00 1.6 9 Sudeste 12 Sudeste 0 -- -- 72
2020-01-07 06:00:00 2.3 8 Sudeste 13 Sudeste 0 -- -- 68
2020-01-07 05:00:00 2.5 9 Sudeste 14 Sudeste 0 -- -- 67
2020-01-07 04:00:00 1 6 Sudeste 10 Sudeste 0 -- -- 78
2020-01-07 03:00:00 1.3 5 Sudeste 13 Sudeste 0 -- -- 75
2020-01-07 02:00:00 0.9 4 Sudeste 14 Sudeste 0 -- -- 80
2020-01-07 01:00:00 0.6 4 Sudeste 13 Sudeste 0 -- -- 81
2020-01-07 00:00:00 0.9 7 Sudeste 12 Sudeste 0 -- -- 79
2020-01-06 23:00:00 1.1 4 Sudeste 11 Sudeste 0 -- -- 83
2020-01-06 22:00:00 1.6 8 Sudeste 12 Sudeste 0 -- -- 82
2020-01-06 21:00:00 2 9 Sudeste 11 Sudeste 0 -- -- 83
2020-01-06 20:00:00 3.1 6 Sudeste 16 Norte 0 -- -- 78
2020-01-06 19:00:00 3.3 10 Sudeste 16 Sudeste 0 -- -- 74
2020-01-06 18:00:00 4.8 4 Sudeste 12 Sudeste 0 -- -- 79
2020-01-06 17:00:00 6.2 7 Sudeste 12 Norte 0 -- -- 74
2020-01-06 16:00:00 8.7 5 Norte 11 Noroeste 0 -- -- 60
2020-01-06 15:00:00 10.1 2 Noroeste 10 Noroeste 0 -- -- 59
2020-01-06 14:00:00 10.4 5 Noroeste 13 Noroeste 0 -- -- 54
2020-01-06 13:00:00 11.1 12 Norte 26 Norte 0 -- -- 49
2020-01-06 12:00:00 8.8 9 Sudeste 15 Sur 0 -- -- 60
2020-01-06 11:00:00 3.6 10 Sudeste 15 Sudeste 0 -- -- 78
2020-01-06 10:00:00 2.1 5 Sudeste 14 Sudeste 0 -- -- 82